Time;durP1;ratioP1;P1;durP2;ratioP2;P2;SDS_P1;SDS_P2;PMS_P1;PMS_P2;Temp;Humidity;BMP_temperature;BMP_pressure;BME280_temperature;BME280_humidity;BME280_pressure;Samples;Min_cycle;Max_cycle;Signal;HPM_P1;HPM_P2
2021/10/17 00:00:55;;;;;;;7.50;6.80;;;;;18.00;100946.00;;;;2079650;28;20316;-55
2021/10/17 00:01:55;;;;;;;7.90;7.10;;;;;18.00;100951.00;;;;2080440;28;20214;-54
2021/10/17 00:02:56;;;;;;;6.93;6.23;;;;;18.00;100950.00;;;;2080476;28;20217;-54
2021/10/17 00:03:56;;;;;;;7.23;6.63;;;;;18.00;100949.00;;;;2080500;28;20213;-55
2021/10/17 00:04:57;;;;;;;7.60;6.90;;;;;18.00;100940.00;;;;2080232;28;20210;-55
2021/10/17 00:05:58;;;;;;;7.13;6.43;;;;;18.00;100955.00;;;;2077989;28;20237;-56
2021/10/17 00:06:58;;;;;;;7.05;6.30;;;;;18.00;100958.00;;;;2079173;28;20696;-55
2021/10/17 00:07:59;;;;;;;6.90;6.17;;;;;18.00;100954.00;;;;2079252;28;20210;-56
2021/10/17 00:09:00;;;;;;;7.93;7.13;;;;;17.90;100945.00;;;;2085741;28;20736;-55
2021/10/17 00:10:00;;;;;;;7.25;6.47;;;;;18.00;100966.00;;;;2088509;28;20911;-54
2021/10/17 00:11:01;;;;;;;6.40;5.87;;;;;18.00;100949.00;;;;2088637;28;20315;-53
2021/10/17 00:12:02;;;;;;;8.05;7.28;;;;;18.00;100955.00;;;;2087966;28;20333;-53
2021/10/17 00:13:05;;;;;;;7.73;6.90;;;;;18.00;100966.00;;;;2087472;28;20217;-53
2021/10/17 00:14:05;;;;;;;7.25;6.60;;;;;18.00;100950.00;;;;2088567;28;20220;-55
2021/10/17 00:15:07;;;;;;;7.33;6.57;;;;;18.00;100950.00;;;;2082301;28;20214;-55
2021/10/17 00:16:07;;;;;;;7.75;6.90;;;;;18.00;100957.00;;;;2085972;28;20231;-54
2021/10/17 00:17:08;;;;;;;6.90;6.20;;;;;17.90;100953.00;;;;2082449;28;20221;-55
2021/10/17 00:18:08;;;;;;;8.00;7.30;;;;;17.90;100951.00;;;;2081954;28;22959;-54
2021/10/17 00:19:09;;;;;;;6.70;6.10;;;;;18.00;100961.00;;;;2080868;28;20479;-54
2021/10/17 00:20:11;;;;;;;7.40;6.70;;;;;18.00;100954.00;;;;2080246;28;20221;-55
2021/10/17 00:21:11;;;;;;;7.18;6.47;;;;;18.00;100959.00;;;;2084644;28;20223;-55
2021/10/17 00:22:14;;;;;;;6.93;6.33;;;;;18.00;100916.00;;;;2088481;28;20712;-55
2021/10/17 00:23:15;;;;;;;8.00;6.60;;;;;18.00;100963.00;;;;2077444;28;20288;-55
2021/10/17 00:24:16;;;;;;;6.70;6.10;;;;;18.00;100961.00;;;;2071836;28;20214;-56
2021/10/17 00:25:16;;;;;;;7.57;6.87;;;;;18.00;100957.00;;;;2083039;28;20252;-53
2021/10/17 00:26:17;;;;;;;7.10;6.30;;;;;18.00;100962.00;;;;2088257;28;20631;-56
2021/10/17 00:27:17;;;;;;;6.47;5.97;;;;;18.00;100963.00;;;;2088485;28;20456;-55
2021/10/17 00:28:17;;;;;;;6.40;5.80;;;;;18.00;100967.00;;;;2088248;28;20246;-55
2021/10/17 00:29:18;;;;;;;7.27;6.50;;;;;18.00;100976.00;;;;2088144;28;20753;-55
2021/10/17 00:30:18;;;;;;;7.27;6.57;;;;;17.90;100960.00;;;;2087270;28;20591;-53
2021/10/17 00:31:20;;;;;;;6.80;6.20;;;;;17.90;100965.00;;;;2088360;28;20225;-55
2021/10/17 00:32:21;;;;;;;7.60;6.68;;;;;17.90;100967.00;;;;2087781;28;20771;-55
2021/10/17 00:33:22;;;;;;;6.70;6.00;;;;;18.00;100967.00;;;;2086830;28;20212;-53
2021/10/17 00:34:23;;;;;;;7.43;6.60;;;;;17.90;100966.00;;;;2088491;28;20209;-53
2021/10/17 00:35:23;;;;;;;7.30;6.60;;;;;18.00;100975.00;;;;2087665;28;20216;-54
2021/10/17 00:36:27;;;;;;;6.90;6.23;;;;;18.00;100972.00;;;;2086767;28;20808;-56
2021/10/17 00:37:29;;;;;;;6.68;6.05;;;;;17.90;100969.00;;;;2088327;28;20216;-55
2021/10/17 00:38:29;;;;;;;6.93;6.22;;;;;17.90;100974.00;;;;2087760;28;20607;-55
2021/10/17 00:39:29;;;;;;;7.20;6.57;;;;;17.90;100975.00;;;;2087357;28;20230;-56
2021/10/17 00:40:30;;;;;;;7.83;7.10;;;;;17.90;100970.00;;;;2086312;28;20711;-55
2021/10/17 00:41:31;;;;;;;7.30;6.60;;;;;17.90;100975.00;;;;2084534;28;20241;-56
2021/10/17 00:42:31;;;;;;;7.43;6.73;;;;;18.00;100967.00;;;;2079877;28;20741;-54
2021/10/17 00:43:32;;;;;;;6.10;5.50;;;;;18.00;100980.00;;;;2083578;28;20494;-54
2021/10/17 00:44:33;;;;;;;6.80;6.17;;;;;18.00;100977.00;;;;2087825;28;20502;-53
2021/10/17 00:45:33;;;;;;;7.00;6.30;;;;;18.00;100975.00;;;;2085504;28;20217;-54
2021/10/17 00:46:33;;;;;;;7.37;6.67;;;;;18.00;100976.00;;;;2081361;28;20212;-55
2021/10/17 00:47:34;;;;;;;6.80;6.10;;;;;18.00;100981.00;;;;2080931;28;20209;-56
2021/10/17 00:48:34;;;;;;;6.67;6.03;;;;;17.90;100980.00;;;;2080784;28;20297;-55
2021/10/17 00:49:34;;;;;;;6.80;6.20;;;;;17.90;100944.00;;;;2079648;28;20226;-56
2021/10/17 00:50:35;;;;;;;7.13;6.43;;;;;17.90;100978.00;;;;2086495;28;20213;-54
2021/10/17 00:51:35;;;;;;;6.70;5.97;;;;;17.90;100974.00;;;;2087152;28;20212;-55
2021/10/17 00:52:36;;;;;;;6.70;6.10;;;;;17.90;100972.00;;;;2087975;28;20208;-55
2021/10/17 00:53:37;;;;;;;6.50;5.90;;;;;17.90;100982.00;;;;2088264;28;20209;-56
2021/10/17 00:54:37;;;;;;;6.03;5.50;;;;;17.90;100976.00;;;;2081841;28;20452;-54
2021/10/17 00:55:38;;;;;;;6.80;6.20;;;;;17.90;100969.00;;;;2079073;28;20288;-56
2021/10/17 00:56:41;;;;;;;6.17;5.57;;;;;17.90;100971.00;;;;2080099;28;20209;-55
2021/10/17 00:57:44;;;;;;;6.25;5.75;;;;;17.80;100977.00;;;;2079364;28;20288;-53
2021/10/17 00:58:44;;;;;;;7.20;6.43;;;;;18.00;100973.00;;;;2070864;28;20707;-54
2021/10/17 00:59:45;;;;;;;6.90;6.27;;;;;17.90;100977.00;;;;2071263;28;20237;-55
2021/10/17 01:00:46;;;;;;;6.70;6.07;;;;;18.00;100970.00;;;;2079999;28;20595;-56
2021/10/17 01:01:46;;;;;;;6.50;5.90;;;;;17.90;100973.00;;;;2080085;28;20686;-56
2021/10/17 01:02:47;;;;;;;6.10;5.50;;;;;17.90;100967.00;;;;2079810;28;20209;-55
2021/10/17 01:03:48;;;;;;;6.55;5.85;;;;;17.90;100962.00;;;;2078762;28;20300;-55
2021/10/17 01:04:48;;;;;;;6.67;5.93;;;;;17.90;100965.00;;;;2080002;28;20217;-56
2021/10/17 01:05:49;;;;;;;6.33;5.83;;;;;17.90;100964.00;;;;2080153;28;20221;-56
2021/10/17 01:06:50;;;;;;;6.93;6.18;;;;;17.90;100967.00;;;;2079144;28;20560;-54
2021/10/17 01:07:50;;;;;;;6.60;6.00;;;;;17.90;100959.00;;;;2078990;28;20275;-55
2021/10/17 01:08:51;;;;;;;6.30;5.80;;;;;17.90;100960.00;;;;2079472;28;20592;-53
2021/10/17 01:09:51;;;;;;;6.50;5.90;;;;;17.90;100962.00;;;;2080033;28;20255;-54
2021/10/17 01:10:56;;;;;;;6.63;6.03;;;;;17.90;100949.00;;;;2079487;28;20214;-54
2021/10/17 01:11:56;;;;;;;6.43;5.82;;;;;17.90;100956.00;;;;2078311;28;20217;-59
2021/10/17 01:12:56;;;;;;;6.67;6.07;;;;;17.90;100962.00;;;;2079757;28;20224;-57
2021/10/17 01:13:57;;;;;;;6.93;6.33;;;;;17.90;100959.00;;;;2079589;28;20218;-56
2021/10/17 01:14:57;;;;;;;6.00;5.50;;;;;17.90;100963.00;;;;2079897;28;20713;-56
2021/10/17 01:15:59;;;;;;;6.53;5.93;;;;;17.90;100953.00;;;;2079859;28;20589;-56
2021/10/17 01:16:59;;;;;;;7.20;6.47;;;;;17.90;100952.00;;;;2080942;28;20209;-56
2021/10/17 01:17:59;;;;;;;6.93;6.33;;;;;17.90;100954.00;;;;2080135;28;20662;-56
2021/10/17 01:19:00;;;;;;;6.47;5.87;;;;;17.90;100952.00;;;;2080460;28;20301;-54
2021/10/17 01:20:00;;;;;;;6.50;5.83;;;;;17.90;100946.00;;;;2079663;28;20218;-54
2021/10/17 01:21:00;;;;;;;6.37;5.77;;;;;17.90;100950.00;;;;2086944;28;20225;-54
2021/10/17 01:22:02;;;;;;;6.43;5.80;;;;;18.00;100960.00;;;;2088056;28;20217;-54
2021/10/17 01:23:03;;;;;;;6.13;5.60;;;;;17.90;100950.00;;;;2087635;28;20336;-54
2021/10/17 01:24:04;;;;;;;6.10;5.50;;;;;18.00;100946.00;;;;2085712;28;20219;-54
2021/10/17 01:25:05;;;;;;;6.57;5.60;;;;;18.00;100954.00;;;;2087266;28;20219;-54
2021/10/17 01:26:05;;;;;;;6.28;5.65;;;;;17.90;100956.00;;;;2088061;28;20216;-54
2021/10/17 01:27:06;;;;;;;7.03;6.33;;;;;17.90;100945.00;;;;2081820;28;20300;-55
2021/10/17 01:28:06;;;;;;;6.13;5.57;;;;;17.90;100946.00;;;;2079707;28;20205;-53
2021/10/17 01:29:07;;;;;;;6.63;6.00;;;;;17.90;100943.00;;;;2079440;28;20456;-53
2021/10/17 01:30:08;;;;;;;5.90;5.40;;;;;17.90;100948.00;;;;2079670;28;20220;-55
2021/10/17 01:31:09;;;;;;;5.70;5.20;;;;;17.90;100947.00;;;;2083965;28;20207;-55
2021/10/17 01:32:09;;;;;;;6.17;5.67;;;;;17.90;100946.00;;;;2087878;28;20209;-55
2021/10/17 01:33:10;;;;;;;6.20;5.67;;;;;17.90;100954.00;;;;2087807;28;20286;-53
2021/10/17 01:34:11;;;;;;;5.97;5.47;;;;;17.90;100946.00;;;;2086337;28;20231;-54
2021/10/17 01:35:12;;;;;;;5.97;5.47;;;;;17.90;100959.00;;;;2087911;28;20455;-53
2021/10/17 01:36:12;;;;;;;5.80;5.30;;;;;17.90;100960.00;;;;2087746;28;20217;-55
2021/10/17 01:37:12;;;;;;;5.80;5.30;;;;;17.90;100952.00;;;;2087887;28;20223;-53
2021/10/17 01:38:13;;;;;;;6.00;5.40;;;;;17.90;100953.00;;;;2084656;28;20275;-54
2021/10/17 01:39:15;;;;;;;6.10;5.60;;;;;17.90;100950.00;;;;2087298;28;20754;-54
2021/10/17 01:40:15;;;;;;;6.10;5.60;;;;;17.90;100946.00;;;;2087798;28;20224;-56
2021/10/17 01:41:16;;;;;;;6.77;6.00;;;;;17.90;100954.00;;;;2087921;28;20291;-56
2021/10/17 01:42:16;;;;;;;6.27;5.67;;;;;17.90;100944.00;;;;2087913;28;20248;-55
2021/10/17 01:43:16;;;;;;;6.30;5.70;;;;;17.90;100943.00;;;;2085604;28;20335;-53
2021/10/17 01:44:31;;;;;;;6.00;5.40;;;;;17.90;100942.00;;;;2086595;28;20216;-55
2021/10/17 01:45:32;;;;;;;5.68;5.18;;;;;17.90;100943.00;;;;2085123;28;20244;-55
2021/10/17 01:46:33;;;;;;;5.60;5.10;;;;;17.90;100938.00;;;;2085288;28;20200;-54
2021/10/17 01:47:33;;;;;;;5.80;5.30;;;;;17.90;100939.00;;;;2080294;28;20224;-54
2021/10/17 01:48:34;;;;;;;6.07;5.50;;;;;17.90;100945.00;;;;2078953;28;20209;-54
2021/10/17 01:49:35;;;;;;;6.63;6.00;;;;;17.90;100937.00;;;;2078114;28;20220;-55
2021/10/17 01:50:35;;;;;;;6.57;5.97;;;;;17.90;100938.00;;;;2079379;28;20213;-54
2021/10/17 01:51:35;;;;;;;6.03;5.33;;;;;17.90;100938.00;;;;2086989;28;20209;-55
2021/10/17 01:52:36;;;;;;;6.43;5.87;;;;;17.90;100935.00;;;;2082609;28;20218;-55
2021/10/17 01:53:36;;;;;;;6.03;5.43;;;;;17.90;100934.00;;;;2078964;28;20244;-56
2021/10/17 01:54:37;;;;;;;5.37;4.90;;;;;17.90;100926.00;;;;2080582;28;20278;-55
2021/10/17 01:55:38;;;;;;;5.88;5.13;;;;;17.90;100937.00;;;;2087320;28;20641;-55
2021/10/17 01:56:38;;;;;;;5.40;4.90;;;;;17.90;100931.00;;;;2087556;28;20220;-54
2021/10/17 01:57:39;;;;;;;5.63;5.03;;;;;17.90;100937.00;;;;2080328;28;20307;-55
2021/10/17 01:58:40;;;;;;;5.47;4.93;;;;;17.90;100925.00;;;;2087247;28;20313;-54
2021/10/17 01:59:40;;;;;;;5.50;5.00;;;;;17.90;100928.00;;;;2087103;28;20225;-53
2021/10/17 02:00:41;;;;;;;5.80;5.20;;;;;17.90;100884.00;;;;2087164;28;20475;-54
2021/10/17 02:01:44;;;;;;;5.63;5.23;;;;;17.90;100925.00;;;;2084675;28;20587;-54
2021/10/17 02:02:44;;;;;;;5.78;5.28;;;;;17.90;100921.00;;;;2082838;28;20816;-56
2021/10/17 02:03:45;;;;;;;5.77;5.27;;;;;17.90;100925.00;;;;2080728;28;20256;-56
2021/10/17 02:04:45;;;;;;;5.67;5.17;;;;;17.80;100920.00;;;;2079527;28;20201;-53
2021/10/17 02:05:46;;;;;;;5.07;4.63;;;;;17.90;100920.00;;;;2079532;28;20205;-55
2021/10/17 02:06:46;;;;;;;5.13;4.73;;;;;17.90;100917.00;;;;2079453;28;20217;-53
2021/10/17 02:07:47;;;;;;;5.63;5.23;;;;;17.90;100921.00;;;;2079272;28;20710;-54
2021/10/17 02:08:47;;;;;;;5.43;4.93;;;;;17.90;100917.00;;;;2079356;28;20269;-55
2021/10/17 02:09:48;;;;;;;5.70;5.20;;;;;17.90;100922.00;;;;2079436;28;20629;-55
2021/10/17 02:10:48;;;;;;;5.50;5.00;;;;;17.90;100920.00;;;;2085050;28;20709;-55
2021/10/17 02:11:49;;;;;;;5.70;5.20;;;;;17.90;100915.00;;;;2085685;28;20219;-55
2021/10/17 02:12:49;;;;;;;5.80;5.30;;;;;17.90;100919.00;;;;2079483;28;20621;-55
2021/10/17 02:13:49;;;;;;;6.20;5.60;;;;;17.90;100924.00;;;;2079438;28;20217;-56
2021/10/17 02:14:50;;;;;;;5.17;4.70;;;;;17.90;100915.00;;;;2079742;28;20764;-55
2021/10/17 02:15:50;;;;;;;5.60;5.10;;;;;17.90;100921.00;;;;2080614;28;20256;-55
2021/10/17 02:16:50;;;;;;;5.23;4.73;;;;;17.90;100913.00;;;;2082973;28;20750;-54
2021/10/17 02:17:51;;;;;;;5.40;4.90;;;;;17.90;100916.00;;;;2079620;28;20383;-54
2021/10/17 02:18:51;;;;;;;5.30;4.80;;;;;17.90;100917.00;;;;2079667;28;20216;-54
2021/10/17 02:19:51;;;;;;;5.53;5.03;;;;;17.90;100927.00;;;;2079270;28;20216;-55
2021/10/17 02:20:52;;;;;;;5.00;4.50;;;;;17.90;100911.00;;;;2070335;28;20710;-53
2021/10/17 02:21:53;;;;;;;4.80;4.40;;;;;17.90;100911.00;;;;2092271;28;20223;-55
2021/10/17 02:22:53;;;;;;;5.53;5.00;;;;;17.90;100916.00;;;;2087877;28;20750;-55
2021/10/17 02:23:54;;;;;;;5.50;5.00;;;;;17.90;100906.00;;;;2082782;28;20236;-54
2021/10/17 02:24:54;;;;;;;5.33;4.70;;;;;17.90;100909.00;;;;2078864;28;20468;-55
2021/10/17 02:25:54;;;;;;;4.70;4.30;;;;;17.90;100906.00;;;;2079487;28;20209;-54
2021/10/17 02:26:55;;;;;;;5.23;4.73;;;;;17.90;100904.00;;;;2079163;28;20553;-55
2021/10/17 02:27:55;;;;;;;5.73;5.17;;;;;17.80;100903.00;;;;2078338;28;20299;-56
2021/10/17 02:28:55;;;;;;;5.10;4.70;;;;;17.90;100911.00;;;;2077648;28;20221;-55
2021/10/17 02:29:56;;;;;;;5.50;5.10;;;;;17.90;100907.00;;;;2079425;28;20214;-55
2021/10/17 02:30:56;;;;;;;5.53;5.03;;;;;17.90;100909.00;;;;2076381;28;20240;-55
2021/10/17 02:31:59;;;;;;;5.37;4.87;;;;;17.90;100915.00;;;;2078887;28;20236;-56
2021/10/17 02:33:00;;;;;;;5.45;4.95;;;;;17.90;100906.00;;;;2078534;28;20248;-56
2021/10/17 02:34:00;;;;;;;5.40;4.90;;;;;17.90;100903.00;;;;2069945;28;20217;-53
2021/10/17 02:35:01;;;;;;;5.10;4.70;;;;;17.90;100906.00;;;;2077073;28;20237;-55
2021/10/17 02:36:02;;;;;;;5.10;4.60;;;;;17.90;100907.00;;;;2079043;28;20286;-53
2021/10/17 02:37:04;;;;;;;5.03;4.63;;;;;17.80;100916.00;;;;2078442;28;20324;-54
2021/10/17 02:38:04;;;;;;;5.15;4.70;;;;;17.90;100903.00;;;;2078729;28;20217;-54
2021/10/17 02:39:04;;;;;;;5.00;4.60;;;;;17.90;100905.00;;;;2077534;28;20217;-53
2021/10/17 02:40:06;;;;;;;4.83;4.43;;;;;17.90;100904.00;;;;2082108;28;20217;-56
2021/10/17 02:41:06;;;;;;;5.88;5.38;;;;;17.90;100898.00;;;;2087017;28;20291;-56
2021/10/17 02:42:07;;;;;;;5.33;4.83;;;;;17.90;100904.00;;;;2087344;28;20276;-54
2021/10/17 02:43:07;;;;;;;5.47;5.00;;;;;17.90;100907.00;;;;2087128;28;20201;-54
2021/10/17 02:44:07;;;;;;;5.40;4.53;;;;;17.90;100903.00;;;;2087330;28;20213;-54
2021/10/17 02:45:08;;;;;;;4.90;4.50;;;;;17.90;100903.00;;;;2087129;28;20217;-56
2021/10/17 02:46:09;;;;;;;5.47;4.97;;;;;17.90;100907.00;;;;2084918;28;20208;-53
2021/10/17 02:47:09;;;;;;;5.63;5.17;;;;;17.90;100900.00;;;;2080653;28;20455;-55
2021/10/17 02:48:10;;;;;;;5.20;4.70;;;;;17.90;100908.00;;;;2080173;28;20460;-55
2021/10/17 02:49:10;;;;;;;5.50;5.00;;;;;17.90;100908.00;;;;2079160;28;20213;-54
2021/10/17 02:50:11;;;;;;;5.30;4.90;;;;;17.90;100903.00;;;;2078602;28;20213;-56
2021/10/17 02:51:12;;;;;;;5.60;5.10;;;;;17.90;100897.00;;;;2079125;28;20213;-54
2021/10/17 02:52:13;;;;;;;5.15;4.65;;;;;17.90;100900.00;;;;2081065;28;20959;-55
2021/10/17 02:53:13;;;;;;;4.90;4.40;;;;;17.90;100901.00;;;;2087244;28;20212;-54
2021/10/17 02:54:13;;;;;;;6.40;4.60;;;;;17.80;100899.00;;;;2087227;28;20713;-54
2021/10/17 02:55:14;;;;;;;4.80;4.30;;;;;17.90;100897.00;;;;2084319;28;20236;-55
2021/10/17 02:56:14;;;;;;;4.50;4.20;;;;;17.90;100899.00;;;;2078816;28;20210;-56
2021/10/17 02:57:15;;;;;;;5.17;4.70;;;;;17.90;100894.00;;;;2078445;28;20209;-55
2021/10/17 02:58:15;;;;;;;4.30;3.90;;;;;17.90;100899.00;;;;2077368;28;20575;-53
2021/10/17 02:59:16;;;;;;;4.80;4.40;;;;;17.80;100890.00;;;;2082928;28;20300;-54
2021/10/17 03:00:17;;;;;;;4.40;4.00;;;;;17.90;100888.00;;;;2087165;28;20339;-56
2021/10/17 03:01:18;;;;;;;4.82;4.43;;;;;17.90;100895.00;;;;2086625;28;20299;-54
2021/10/17 03:02:18;;;;;;;4.67;4.30;;;;;17.90;100894.00;;;;2086914;28;20216;-56
2021/10/17 03:03:18;;;;;;;5.50;4.83;;;;;17.90;100896.00;;;;2086685;28;20220;-55
2021/10/17 03:04:19;;;;;;;4.70;4.30;;;;;17.90;100894.00;;;;2086762;28;20209;-55
2021/10/17 03:05:19;;;;;;;4.80;4.40;;;;;17.80;100901.00;;;;2086873;28;20999;-56
2021/10/17 03:06:25;;;;;;;4.33;3.93;;;;;17.80;100886.00;;;;2086738;28;20287;-53
2021/10/17 03:07:25;;;;;;;4.85;4.45;;;;;17.80;100888.00;;;;2086624;28;20341;-54
2021/10/17 03:08:26;;;;;;;4.73;4.33;;;;;17.80;100894.00;;;;2080172;28;20229;-53
2021/10/17 03:09:26;;;;;;;4.80;4.40;;;;;17.80;100894.00;;;;2078170;28;20352;-55
2021/10/17 03:10:27;;;;;;;4.60;4.20;;;;;17.90;100896.00;;;;2078621;28;21154;-56
2021/10/17 03:11:28;;;;;;;4.30;3.90;;;;;17.90;100897.00;;;;2078394;28;20220;-55
2021/10/17 03:12:29;;;;;;;4.88;4.47;;;;;17.80;100892.00;;;;2081397;28;20248;-54
2021/10/17 03:13:29;;;;;;;5.17;4.77;;;;;17.90;100890.00;;;;2086678;28;20212;-55
2021/10/17 03:14:29;;;;;;;4.53;4.13;;;;;17.80;100902.00;;;;2085396;28;20216;-54
2021/10/17 03:15:30;;;;;;;4.83;4.43;;;;;17.90;100891.00;;;;2085937;28;20363;-53
2021/10/17 03:16:30;;;;;;;4.90;4.50;;;;;17.80;100894.00;;;;2084989;28;20217;-55
2021/10/17 03:17:30;;;;;;;4.50;4.20;;;;;17.90;100895.00;;;;2081920;28;20212;-54
2021/10/17 03:18:31;;;;;;;4.97;4.57;;;;;17.90;100896.00;;;;2082542;28;20209;-54
2021/10/17 03:19:32;;;;;;;4.70;4.30;;;;;17.80;100889.00;;;;2078373;28;20217;-54
2021/10/17 03:20:33;;;;;;;5.28;4.78;;;;;17.80;100883.00;;;;2078596;28;20225;-54
2021/10/17 03:21:34;;;;;;;4.47;4.17;;;;;17.80;100882.00;;;;2078456;28;20205;-55
2021/10/17 03:22:34;;;;;;;4.43;4.13;;;;;17.80;100884.00;;;;2078389;28;20882;-55
2021/10/17 03:23:34;;;;;;;4.60;4.20;;;;;17.90;100881.00;;;;2079917;28;20722;-56
2021/10/17 03:24:35;;;;;;;4.80;4.40;;;;;17.80;100879.00;;;;2086547;28;20726;-55
2021/10/17 03:25:35;;;;;;;4.70;4.30;;;;;17.80;100882.00;;;;2087045;28;20582;-55
2021/10/17 03:26:35;;;;;;;4.20;3.90;;;;;17.80;100884.00;;;;2086932;28;20577;-55
2021/10/17 03:27:36;;;;;;;4.20;3.80;;;;;17.80;100876.00;;;;2080040;28;20213;-56
2021/10/17 03:28:36;;;;;;;4.50;4.10;;;;;17.80;100876.00;;;;2078284;28;20343;-54
2021/10/17 03:29:37;;;;;;;3.90;3.60;;;;;17.80;100875.00;;;;2084839;28;20794;-54
2021/10/17 03:30:38;;;;;;;4.93;4.53;;;;;17.80;100878.00;;;;2086669;28;20240;-56
2021/10/17 03:31:39;;;;;;;4.63;4.28;;;;;17.80;100876.00;;;;2086890;28;20615;-54
2021/10/17 03:32:39;;;;;;;4.00;3.70;;;;;17.80;100875.00;;;;2086616;28;20221;-56
2021/10/17 03:33:40;;;;;;;4.57;4.17;;;;;17.80;100869.00;;;;2086169;28;20221;-56
2021/10/17 03:34:40;;;;;;;4.50;4.10;;;;;17.80;100873.00;;;;2079467;28;20229;-56
2021/10/17 03:35:41;;;;;;;4.50;4.10;;;;;17.80;100870.00;;;;2078626;28;20271;-53
2021/10/17 03:36:41;;;;;;;4.37;4.07;;;;;17.80;100870.00;;;;2078842;28;20275;-55
2021/10/17 03:37:42;;;;;;;4.23;3.93;;;;;17.90;100880.00;;;;2079031;28;20468;-56
2021/10/17 03:38:43;;;;;;;4.17;3.87;;;;;17.90;100874.00;;;;2086797;28;20205;-52
2021/10/17 03:39:44;;;;;;;3.83;3.53;;;;;17.90;100878.00;;;;2087266;28;20217;-56
2021/10/17 03:40:47;;;;;;;4.15;3.85;;;;;17.80;100886.00;;;;2087025;28;20588;-54
2021/10/17 03:41:50;;;;;;;4.45;3.80;;;;;17.80;100879.00;;;;2078161;28;20268;-58
2021/10/17 03:42:50;;;;;;;4.15;3.85;;;;;17.80;100879.00;;;;2078865;28;20221;-56
2021/10/17 03:43:51;;;;;;;4.30;4.00;;;;;17.80;100878.00;;;;2094790;28;20215;-53
2021/10/17 03:44:51;;;;;;;4.30;3.90;;;;;17.80;100876.00;;;;2094427;28;20213;-53
2021/10/17 03:45:52;;;;;;;4.47;4.07;;;;;17.80;100877.00;;;;2089333;28;20204;-55
2021/10/17 03:46:53;;;;;;;4.60;4.20;;;;;17.80;100880.00;;;;2088294;28;20228;-55
2021/10/17 03:47:53;;;;;;;3.80;3.50;;;;;17.80;100877.00;;;;2086383;28;20207;-56
2021/10/17 03:48:54;;;;;;;3.93;3.60;;;;;17.80;100885.00;;;;2088977;28;20200;-56
2021/10/17 03:49:54;;;;;;;4.40;4.07;;;;;17.80;100880.00;;;;2087108;28;20296;-55
2021/10/17 03:50:54;;;;;;;4.47;4.00;;;;;17.80;100883.00;;;;2087191;28;20224;-55
2021/10/17 03:51:55;;;;;;;4.27;3.87;;;;;17.80;100885.00;;;;2094032;28;20262;-53
2021/10/17 03:52:55;;;;;;;4.63;4.10;;;;;17.80;100886.00;;;;2088845;28;20224;-54
2021/10/17 03:53:56;;;;;;;4.00;3.70;;;;;17.80;100873.00;;;;2083196;28;20237;-56
2021/10/17 03:54:56;;;;;;;4.10;3.80;;;;;17.80;100886.00;;;;2078648;28;20218;-55
2021/10/17 03:55:56;;;;;;;4.70;4.30;;;;;17.80;100886.00;;;;2078448;28;20217;-55
2021/10/17 03:56:57;;;;;;;4.73;4.33;;;;;17.80;100885.00;;;;2079023;28;20232;-56
2021/10/17 03:57:57;;;;;;;5.20;4.50;;;;;17.80;100890.00;;;;2078931;28;20259;-52
2021/10/17 03:58:58;;;;;;;4.07;3.73;;;;;17.80;100880.00;;;;2078642;28;20205;-54
2021/10/17 03:59:58;;;;;;;4.73;4.23;;;;;17.80;100880.00;;;;2081873;28;20217;-56
2021/10/17 04:00:58;;;;;;;3.80;3.50;;;;;17.80;100875.00;;;;2086920;28;20304;-55
2021/10/17 04:01:59;;;;;;;4.10;3.70;;;;;17.80;100874.00;;;;2087103;28;20292;-53
2021/10/17 04:02:59;;;;;;;6.13;3.60;;;;;17.80;100867.00;;;;2087102;28;20720;-55
2021/10/17 04:04:00;;;;;;;4.03;3.70;;;;;17.80;100873.00;;;;2087184;28;20697;-55
2021/10/17 04:05:00;;;;;;;4.40;4.00;;;;;17.80;100874.00;;;;2087034;28;20229;-55
2021/10/17 04:06:01;;;;;;;4.20;3.80;;;;;17.80;100874.00;;;;2086929;28;20927;-54
2021/10/17 04:07:02;;;;;;;3.60;3.30;;;;;17.80;100866.00;;;;2087093;28;20222;-54
2021/10/17 04:08:02;;;;;;;4.60;4.20;;;;;17.80;100862.00;;;;2087084;28;20217;-53
2021/10/17 04:09:03;;;;;;;3.80;3.50;;;;;17.80;100860.00;;;;2084500;28;20543;-55
2021/10/17 04:10:04;;;;;;;3.57;3.30;;;;;17.80;100867.00;;;;2087793;28;20209;-53
2021/10/17 04:11:05;;;;;;;3.72;3.42;;;;;17.80;100861.00;;;;2088379;28;20620;-55
2021/10/17 04:12:06;;;;;;;3.93;3.63;;;;;17.80;100858.00;;;;2088529;28;20267;-53
2021/10/17 04:13:07;;;;;;;3.45;3.15;;;;;17.80;100853.00;;;;2088697;28;20798;-55
2021/10/17 04:14:07;;;;;;;4.07;3.70;;;;;17.80;100853.00;;;;2088573;28;20215;-55
2021/10/17 04:15:08;;;;;;;4.10;3.80;;;;;17.80;100860.00;;;;2088439;28;20743;-54
2021/10/17 04:16:08;;;;;;;3.63;3.33;;;;;17.80;100856.00;;;;2080939;28;20280;-54
2021/10/17 04:17:08;;;;;;;4.13;3.80;;;;;17.80;100865.00;;;;2086222;28;20233;-53
2021/10/17 04:18:10;;;;;;;3.83;3.53;;;;;17.80;100862.00;;;;2084584;28;20209;-56
2021/10/17 04:19:11;;;;;;;4.22;3.85;;;;;17.80;100856.00;;;;2083627;28;20459;-55
2021/10/17 04:20:11;;;;;;;4.03;3.70;;;;;17.80;100865.00;;;;2087736;28;20374;-54
2021/10/17 04:21:11;;;;;;;3.93;3.63;;;;;17.80;100857.00;;;;2085318;28;20224;-54
2021/10/17 04:22:12;;;;;;;3.80;3.50;;;;;17.80;100863.00;;;;2088477;28;20312;-55
2021/10/17 04:23:12;;;;;;;3.87;3.57;;;;;17.80;100861.00;;;;2088550;28;20213;-54
2021/10/17 04:24:13;;;;;;;3.63;3.33;;;;;17.80;100867.00;;;;2087563;28;20230;-56
2021/10/17 04:25:13;;;;;;;4.10;3.80;;;;;17.80;100870.00;;;;2088510;28;21806;-55
2021/10/17 04:26:13;;;;;;;3.60;3.30;;;;;17.80;100864.00;;;;2080990;28;20465;-55
2021/10/17 04:27:14;;;;;;;4.27;3.87;;;;;17.80;100867.00;;;;2078726;28;20304;-53
2021/10/17 04:28:14;;;;;;;4.00;3.60;;;;;17.80;100877.00;;;;2080293;28;20221;-54
2021/10/17 04:29:15;;;;;;;4.10;3.70;;;;;17.80;100874.00;;;;2078816;28;20252;-55
2021/10/17 04:30:15;;;;;;;4.17;3.77;;;;;17.80;100876.00;;;;2080034;28;20271;-55
2021/10/17 04:31:16;;;;;;;3.90;3.60;;;;;17.80;100872.00;;;;2079532;28;20218;-56
2021/10/17 04:32:16;;;;;;;3.50;3.20;;;;;17.80;100875.00;;;;2077125;28;20228;-53
2021/10/17 04:33:16;;;;;;;3.70;3.40;;;;;17.80;100876.00;;;;2079634;28;20222;-55
2021/10/17 04:34:17;;;;;;;4.20;3.90;;;;;17.80;100876.00;;;;2078893;28;20239;-55
2021/10/17 04:35:18;;;;;;;3.73;3.43;;;;;17.80;100871.00;;;;2079567;28;20214;-54
2021/10/17 04:36:18;;;;;;;4.10;3.70;;;;;17.80;100873.00;;;;2084190;28;20209;-54
2021/10/17 04:37:18;;;;;;;3.63;3.33;;;;;17.80;100871.00;;;;2087560;28;20515;-54
2021/10/17 04:38:19;;;;;;;4.27;3.90;;;;;17.80;100870.00;;;;2087086;28;20232;-55
2021/10/17 04:39:19;;;;;;;4.10;3.80;;;;;17.80;100872.00;;;;2087521;28;20295;-55
2021/10/17 04:40:21;;;;;;;3.70;3.40;;;;;17.80;100868.00;;;;2087864;28;20295;-54
2021/10/17 04:41:21;;;;;;;3.97;3.67;;;;;17.80;100874.00;;;;2087481;28;20678;-54
2021/10/17 04:42:22;;;;;;;3.63;3.33;;;;;17.80;100873.00;;;;2087656;28;20232;-53
2021/10/17 04:43:22;;;;;;;3.83;3.53;;;;;17.80;100874.00;;;;2087810;28;20288;-55
2021/10/17 04:44:23;;;;;;;3.80;3.50;;;;;17.80;100869.00;;;;2087810;28;20213;-54
2021/10/17 04:45:23;;;;;;;3.60;3.30;;;;;17.80;100864.00;;;;2084389;28;20225;-55
2021/10/17 04:46:23;;;;;;;4.07;3.77;;;;;17.80;100872.00;;;;2082962;28;20217;-56
2021/10/17 04:47:24;;;;;;;3.57;3.27;;;;;17.80;100866.00;;;;2079920;28;20734;-55
2021/10/17 04:48:25;;;;;;;3.50;3.20;;;;;17.80;100871.00;;;;2080047;28;21034;-55
2021/10/17 04:49:26;;;;;;;3.90;3.60;;;;;17.80;100875.00;;;;2077548;28;20287;-54
2021/10/17 04:50:26;;;;;;;3.58;3.25;;;;;17.80;100878.00;;;;2086149;28;20452;-54
2021/10/17 04:51:27;;;;;;;3.53;3.23;;;;;17.80;100872.00;;;;2088339;28;20212;-55
2021/10/17 04:52:27;;;;;;;3.57;3.27;;;;;17.80;100872.00;;;;2087428;28;20893;-58
2021/10/17 04:53:28;;;;;;;3.80;3.50;;;;;17.80;100871.00;;;;2088331;28;20531;-57
2021/10/17 04:54:28;;;;;;;3.50;3.20;;;;;17.80;100871.00;;;;2088160;28;20316;-56
2021/10/17 04:55:28;;;;;;;3.70;3.40;;;;;17.80;100874.00;;;;2088145;28;20213;-55
2021/10/17 04:56:29;;;;;;;4.10;3.50;;;;;17.80;100874.00;;;;2088380;28;20217;-53
2021/10/17 04:57:29;;;;;;;3.60;3.30;;;;;17.80;100873.00;;;;2083335;28;20212;-53
2021/10/17 04:58:30;;;;;;;3.57;3.27;;;;;17.80;100870.00;;;;2078610;28;20796;-54
2021/10/17 04:59:31;;;;;;;4.60;3.33;;;;;17.80;100873.00;;;;2079529;28;20229;-55
2021/10/17 05:00:31;;;;;;;3.10;2.90;;;;;17.80;100870.00;;;;2079972;28;20715;-53